Time;durP1;ratioP1;P1;durP2;ratioP2;P2;SDS_P1;SDS_P2;PMS_P1;PMS_P2;Temp;Humidity;BMP_temperature;BMP_pressure;BME280_temperature;BME280_humidity;BME280_pressure;Samples;Min_cycle;Max_cycle;Signal;HPM_P1;HPM_P2
2024/04/07 00:02:17;;;;;;;9.13;3.95;;;;;;;19.79;49.20;100911.69;4973275;28;100820;-86
2024/04/07 00:04:43;;;;;;;11.73;5.05;;;;;;;19.75;49.02;100913.56;4996117;28;100223;-85
2024/04/07 00:07:09;;;;;;;10.13;4.18;;;;;;;19.73;48.88;100899.50;4966458;28;96709;-85
2024/04/07 00:09:37;;;;;;;11.73;4.72;;;;;;;19.71;49.07;100895.94;4991481;28;97294;-86
2024/04/07 00:12:09;;;;;;;9.32;3.70;;;;;;;19.69;49.13;100899.56;4972750;28;100627;-86
2024/04/07 00:14:36;;;;;;;10.15;4.40;;;;;;;19.68;49.14;100892.50;4988508;28;100698;-86
2024/04/07 00:17:03;;;;;;;10.18;3.45;;;;;;;19.67;49.18;100907.53;4989105;28;96861;-85
2024/04/07 00:19:29;;;;;;;11.38;3.50;;;;;;;19.66;49.08;100918.16;4973406;28;96966;-85
2024/04/07 00:21:54;;;;;;;9.35;3.35;;;;;;;19.65;49.11;100925.22;4973707;28;100896;-86
2024/04/07 00:24:20;;;;;;;7.03;2.97;;;;;;;19.67;49.37;100930.47;4969893;28;100578;-86
2024/04/07 00:26:45;;;;;;;8.88;3.08;;;;;;;19.66;49.01;100937.56;4962307;28;96917;-86
2024/04/07 00:29:10;;;;;;;9.95;2.47;;;;;;;19.69;49.02;100952.47;4970012;28;97015;-85
2024/04/07 00:31:36;;;;;;;8.02;2.25;;;;;;;19.74;48.73;100977.97;4994768;28;105243;-85
2024/04/07 00:34:01;;;;;;;7.63;2.58;;;;;;;19.83;48.86;100990.09;4973292;28;100573;-85
2024/04/07 00:36:26;;;;;;;6.85;3.10;;;;;;;19.91;48.49;101000.50;4958706;28;96958;-86
2024/04/07 00:38:52;;;;;;;7.72;2.13;;;;;;;20.00;48.60;101012.66;4972419;28;97192;-87
2024/04/07 00:41:17;;;;;;;10.13;3.42;;;;;;;20.10;47.99;100998.28;4962519;28;100503;-86
2024/04/07 00:43:43;;;;;;;7.82;2.88;;;;;;;20.18;48.17;100983.09;4994069;28;97489;-86
2024/04/07 00:46:08;;;;;;;7.00;2.95;;;;;;;20.26;48.07;101002.28;4991102;28;96844;-85
2024/04/07 00:48:34;;;;;;;9.15;2.80;;;;;;;20.33;47.97;101001.22;4972684;28;97139;-85
2024/04/07 00:51:00;;;;;;;9.18;2.38;;;;;;;20.38;47.70;100993.19;4982694;28;101125;-86
2024/04/07 00:53:26;;;;;;;7.60;2.22;;;;;;;20.47;47.77;101005.31;4989671;28;97525;-87
2024/04/07 00:55:51;;;;;;;7.32;2.13;;;;;;;20.53;47.70;101015.75;4966877;28;96892;-86
2024/04/07 00:58:18;;;;;;;9.25;2.10;;;;;;;20.59;47.77;101030.59;4967305;28;97278;-86
2024/04/07 01:00:45;;;;;;;8.27;2.60;;;;;;;20.64;47.31;101039.34;4970157;28;97408;-86
2024/04/07 01:03:12;;;;;;;9.50;2.33;;;;;;;20.67;47.50;101040.13;4978997;28;100817;-86
2024/04/07 01:05:43;;;;;;;7.90;1.95;;;;;;;20.71;47.60;101043.56;4994998;28;96897;-86
2024/04/07 01:08:10;;;;;;;6.10;2.58;;;;;;;20.76;47.46;101039.03;4987360;28;96855;-86
2024/04/07 01:10:36;;;;;;;5.18;1.77;;;;;;;20.80;47.29;101031.84;4961031;28;100126;-86
2024/04/07 01:13:06;;;;;;;6.75;2.22;;;;;;;20.81;46.93;101031.81;4959897;28;100151;-86
2024/04/07 01:15:34;;;;;;;4.72;1.83;;;;;;;20.84;46.98;101039.69;4977526;28;96848;-85
2024/04/07 01:18:00;;;;;;;6.15;1.65;;;;;;;20.85;46.81;101046.72;4971308;28;96773;-87
2024/04/07 01:20:27;;;;;;;4.85;1.88;;;;;;;20.85;46.94;101054.69;4983765;28;100035;-86
2024/04/07 01:22:53;;;;;;;11.73;1.85;;;;;;;20.84;46.85;101062.69;4982958;28;100700;-87
2024/04/07 01:25:19;;;;;;;4.18;1.45;;;;;;;20.81;46.90;101060.13;4971936;28;96816;-86
2024/04/07 01:27:54;;;;;;;5.65;1.63;;;;;;;20.79;47.06;101067.25;4973725;28;97214;-88
2024/04/07 01:30:20;;;;;;;6.65;2.03;;;;;;;20.77;46.89;101058.47;4986151;28;101043;-87
2024/04/07 01:32:46;;;;;;;6.28;1.98;;;;;;;20.73;46.77;101047.09;4988395;28;100495;-87
2024/04/07 01:35:11;;;;;;;4.78;1.45;;;;;;;20.71;47.08;101040.91;4972243;28;96860;-88
2024/04/07 01:37:36;;;;;;;5.82;1.02;;;;;;;20.68;47.22;101041.88;4989828;28;97040;-87
2024/04/07 01:40:03;;;;;;;8.07;2.20;;;;;;;20.66;47.10;101032.22;4968654;28;100542;-87
2024/04/07 01:42:30;;;;;;;4.93;1.27;;;;;;;20.63;47.24;101037.63;4966104;28;100449;-87
2024/04/07 01:44:55;;;;;;;6.10;1.30;;;;;;;20.60;47.10;101048.25;4970731;28;97004;-88
2024/04/07 01:47:21;;;;;;;5.88;1.98;;;;;;;20.56;47.06;101076.63;4960754;28;96809;-86
2024/04/07 01:49:49;;;;;;;4.95;1.20;;;;;;;20.51;47.44;101062.63;4988688;28;100348;-87
2024/04/07 01:52:15;;;;;;;6.35;1.70;;;;;;;20.47;47.17;101071.56;4984412;28;100188;-88
2024/04/07 01:54:40;;;;;;;5.32;1.80;;;;;;;20.44;47.48;101074.28;4972409;28;96983;-88
2024/04/07 01:57:06;;;;;;;3.42;1.00;;;;;;;20.40;47.51;101080.56;4970396;28;96916;-88
2024/04/07 01:59:32;;;;;;;4.85;1.13;;;;;;;20.37;47.16;101088.59;4971909;28;100770;-87
2024/04/07 02:01:57;;;;;;;2.50;1.10;;;;;;;20.32;47.20;101102.81;4995122;28;97754;-87
2024/04/07 02:04:24;;;;;;;4.53;1.23;;;;;;;20.29;47.45;101115.25;4978825;28;97247;-87
2024/04/07 02:06:49;;;;;;;4.82;1.95;;;;;;;20.24;47.45;101120.66;4969969;28;96899;-87
2024/04/07 02:09:16;;;;;;;3.78;1.10;;;;;;;20.22;47.29;101148.09;4970495;28;98126;-86
2024/04/07 02:11:42;;;;;;;3.72;1.05;;;;;;;20.17;47.36;101143.75;4994831;28;101107;-85
2024/04/07 02:14:07;;;;;;;3.83;0.90;;;;;;;20.13;47.57;101144.75;4977029;28;96959;-88
2024/04/07 02:16:34;;;;;;;4.63;1.00;;;;;;;20.09;47.58;101148.38;4973056;28;96739;-88
2024/04/07 02:18:59;;;;;;;5.18;1.00;;;;;;;20.02;47.88;101154.72;4971074;28;100368;-88
2024/04/07 02:21:24;;;;;;;3.00;0.95;;;;;;;19.97;47.82;101143.34;4970743;28;100742;-87
2024/04/07 02:23:50;;;;;;;3.83;1.35;;;;;;;19.93;48.21;101141.66;4991799;28;96868;-86
2024/04/07 02:26:15;;;;;;;3.58;1.00;;;;;;;19.87;48.37;101136.50;4961642;28;96792;-90
2024/04/07 02:28:41;;;;;;;4.35;1.70;;;;;;;19.80;48.22;101142.81;4996185;28;99110;-87
2024/04/07 02:31:07;;;;;;;3.47;1.45;;;;;;;19.71;48.82;101138.56;4970343;28;100975;-86
2024/04/07 02:33:32;;;;;;;4.85;0.80;;;;;;;19.62;48.58;101129.03;4972348;28;96860;-87
2024/04/07 02:35:58;;;;;;;4.78;1.20;;;;;;;19.53;49.06;101127.44;4974430;28;97072;-87
2024/04/07 02:38:23;;;;;;;4.32;1.15;;;;;;;19.45;49.19;101128.50;4971894;28;99932;-87
2024/04/07 02:40:49;;;;;;;6.00;1.70;;;;;;;19.36;49.48;101113.69;4980256;28;99915;-87
2024/04/07 02:43:14;;;;;;;6.80;1.50;;;;;;;19.29;49.76;101104.16;5003678;28;97154;-87
2024/04/07 02:48:23;;;;;;;9.32;1.35;;;;;;;19.12;50.23;101073.59;4991310;28;100439;-87
2024/04/07 02:50:49;;;;;;;3.70;1.63;;;;;;;19.05;50.39;101064.03;4970660;28;100113;-88
2024/04/07 02:53:14;;;;;;;3.97;1.17;;;;;;;18.99;50.49;101059.75;4979273;28;96835;-87
2024/04/07 02:55:40;;;;;;;3.88;1.52;;;;;;;18.93;50.36;101044.00;4979241;28;96846;-88
2024/04/07 02:58:05;;;;;;;6.40;1.25;;;;;;;18.91;50.62;101047.56;4965742;28;100505;-87
2024/04/07 03:00:31;;;;;;;3.65;1.15;;;;;;;18.88;51.09;101051.16;4989757;28;100474;-87
2024/04/07 03:02:56;;;;;;;3.03;1.25;;;;;;;18.85;50.59;101035.34;4974616;28;96842;-87
2024/04/07 03:05:22;;;;;;;3.45;1.30;;;;;;;18.83;50.58;101039.78;4967991;28;96967;-86
2024/04/07 03:07:50;;;;;;;3.90;1.60;;;;;;;18.80;50.67;101066.22;4980161;28;101039;-86
2024/04/07 03:10:16;;;;;;;2.58;1.40;;;;;;;18.78;50.69;101073.31;4983100;28;100093;-87
2024/04/07 03:12:45;;;;;;;2.85;1.00;;;;;;;18.74;50.85;101075.13;4979833;28;96769;-86
2024/04/07 03:15:11;;;;;;;3.22;1.60;;;;;;;18.73;50.79;101054.03;5017865;28;96893;-84
2024/04/07 03:17:36;;;;;;;3.78;1.80;;;;;;;18.71;50.95;101061.13;4966442;28;100321;-86
2024/04/07 03:20:03;;;;;;;3.63;1.02;;;;;;;18.69;50.46;101055.00;4974394;28;100793;-85
2024/04/07 03:22:29;;;;;;;6.13;1.60;;;;;;;18.69;50.67;101031.22;4973361;28;96863;-86
2024/04/07 03:24:54;;;;;;;4.38;1.25;;;;;;;18.68;50.74;101055.88;4968050;28;97246;-86
2024/04/07 03:27:20;;;;;;;4.32;0.90;;;;;;;18.68;50.68;101074.38;4989565;28;101860;-86
2024/04/07 03:29:46;;;;;;;6.30;0.90;;;;;;;18.69;50.76;101099.91;4967678;28;100186;-86
2024/04/07 03:32:14;;;;;;;3.92;1.60;;;;;;;18.68;50.58;101099.03;4975211;28;96932;-86
2024/04/07 03:34:39;;;;;;;5.97;1.30;;;;;;;18.68;51.01;101080.53;4983586;28;96979;-86
2024/04/07 03:37:06;;;;;;;2.55;0.82;;;;;;;18.69;50.73;101081.41;4979242;28;100737;-86
2024/04/07 03:39:31;;;;;;;2.83;1.02;;;;;;;18.70;50.76;101099.88;4970919;28;100035;-86
2024/04/07 03:41:57;;;;;;;4.70;1.00;;;;;;;18.70;51.01;101101.63;4979801;28;96946;-86
2024/04/07 03:44:22;;;;;;;2.42;1.52;;;;;;;18.69;50.73;101090.19;4981560;28;96809;-86
2024/04/07 03:46:48;;;;;;;3.17;1.73;;;;;;;18.68;50.96;101101.69;4997576;28;100747;-86
2024/04/07 03:49:14;;;;;;;3.60;1.23;;;;;;;18.69;50.88;101106.06;4977729;28;99980;-86
2024/04/07 03:51:39;;;;;;;3.45;1.52;;;;;;;18.67;50.80;101107.84;5000465;28;96787;-86
2024/04/07 03:54:05;;;;;;;3.03;1.23;;;;;;;18.68;50.95;101090.22;4973086;28;96875;-87
2024/04/07 03:56:30;;;;;;;3.30;0.90;;;;;;;18.70;50.81;101077.84;4973888;28;100693;-86
2024/04/07 03:58:56;;;;;;;3.95;1.35;;;;;;;18.70;50.54;101112.19;4972772;28;100917;-86
2024/04/07 04:01:22;;;;;;;5.28;1.35;;;;;;;18.71;50.86;101113.97;4979266;28;96841;-86
2024/04/07 04:03:47;;;;;;;2.10;0.80;;;;;;;18.72;50.39;101105.16;4979506;28;96914;-87
2024/04/07 04:06:16;;;;;;;1.45;0.68;;;;;;;18.71;50.59;101080.47;4973552;28;100194;-86
2024/04/07 04:08:41;;;;;;;2.15;1.02;;;;;;;18.72;50.76;101079.59;4988997;28;102224;-86
2024/04/07 04:11:08;;;;;;;3.42;1.10;;;;;;;18.74;50.52;101091.00;4985880;28;96892;-86
2024/04/07 04:13:38;;;;;;;2.28;1.25;;;;;;;18.74;50.14;101095.41;4995120;28;96858;-86
2024/04/07 04:16:05;;;;;;;2.38;1.15;;;;;;;18.75;50.25;101102.44;4995758;28;100446;-89
2024/04/07 04:18:30;;;;;;;2.70;0.90;;;;;;;18.77;50.28;101101.53;4982427;28;100475;-89
2024/04/07 04:20:56;;;;;;;2.92;0.70;;;;;;;18.80;50.09;101111.16;4988450;28;96911;-90
2024/04/07 04:23:21;;;;;;;2.90;1.25;;;;;;;18.81;49.94;101113.81;4984957;28;96819;-89
2024/04/07 04:25:54;;;;;;;3.70;0.63;;;;;;;18.81;49.63;101126.13;4970041;28;100595;-90
2024/04/07 04:28:21;;;;;;;2.90;1.10;;;;;;;18.84;49.71;101144.59;5007109;28;97427;-90
2024/04/07 04:30:58;;;;;;;4.05;0.80;;;;;;;18.84;49.72;101134.00;4997040;28;96878;-89
2024/04/07 04:33:25;;;;;;;2.83;0.50;;;;;;;18.88;49.25;101134.84;4967697;28;96934;-90
2024/04/07 04:35:51;;;;;;;4.57;0.85;;;;;;;18.88;49.43;101146.28;4975004;28;100458;-90
2024/04/07 04:38:16;;;;;;;2.58;0.73;;;;;;;18.89;49.14;101136.59;4983082;28;100021;-89
2024/04/07 04:40:55;;;;;;;1.92;0.55;;;;;;;18.88;49.04;101138.38;5001416;28;96705;-90
2024/04/07 04:43:21;;;;;;;2.88;0.50;;;;;;;18.90;49.06;101147.13;4992233;28;96829;-89
2024/04/07 04:46:09;;;;;;;2.70;1.10;;;;;;;18.87;49.04;101155.09;4974246;28;100664;-89
2024/04/07 04:48:36;;;;;;;1.65;0.40;;;;;;;18.91;48.33;101151.53;4975735;28;100724;-89
2024/04/07 04:51:02;;;;;;;2.30;0.80;;;;;;;18.93;48.58;101160.31;4989578;28;96937;-91
2024/04/07 04:53:28;;;;;;;3.03;1.10;;;;;;;18.94;48.55;101163.81;4979031;28;96796;-89
2024/04/07 04:56:04;;;;;;;2.97;0.63;;;;;;;18.94;48.54;101174.38;4981728;28;100570;-90
2024/04/07 04:58:30;;;;;;;2.28;0.90;;;;;;;18.95;48.64;101176.16;4983069;28;100797;-89
2024/04/07 05:01:09;;;;;;;2.15;0.60;;;;;;;18.92;48.36;101171.75;4991443;28;96849;-90
2024/04/07 05:03:34;;;;;;;2.58;0.60;;;;;;;18.95;48.13;101170.84;4968859;28;96840;-89
2024/04/07 05:06:08;;;;;;;2.00;1.35;;;;;;;18.93;48.28;101175.28;4978077;28;100436;-89
2024/04/07 05:08:35;;;;;;;1.80;0.65;;;;;;;18.93;48.31;101192.03;4985815;28;97566;-89
2024/04/07 05:11:05;;;;;;;1.85;0.65;;;;;;;18.93;48.25;101192.03;4978889;28;96724;-89
2024/04/07 05:13:34;;;;;;;2.05;0.60;;;;;;;18.94;48.24;101198.19;4978279;28;97011;-90
2024/04/07 05:15:59;;;;;;;1.55;0.60;;;;;;;18.94;48.22;101198.19;4991658;28;97704;-89
2024/04/07 05:18:29;;;;;;;2.83;0.85;;;;;;;18.93;48.20;101207.88;4973596;28;100563;-89
2024/04/07 05:20:55;;;;;;;2.78;0.52;;;;;;;18.94;48.33;101209.63;4985247;28;96829;-89
2024/04/07 05:23:22;;;;;;;3.33;0.80;;;;;;;18.93;48.01;101210.53;4980150;28;96871;-90
2024/04/07 05:25:47;;;;;;;2.72;0.75;;;;;;;18.91;48.07;101214.97;4968408;28;100742;-90
2024/04/07 05:28:12;;;;;;;3.03;0.70;;;;;;;18.91;48.19;101219.34;4979801;28;111809;-90
2024/04/07 05:30:38;;;;;;;2.22;1.10;;;;;;;18.90;48.25;101217.63;4976132;28;96860;-89
2024/04/07 05:33:04;;;;;;;2.25;0.70;;;;;;;18.89;48.30;101224.66;4972277;28;96968;-89
2024/04/07 05:35:31;;;;;;;3.33;0.80;;;;;;;18.88;48.52;101217.66;5001761;28;97644;-89
2024/04/07 05:37:57;;;;;;;1.27;0.60;;;;;;;18.89;48.33;101221.16;4967329;28;100895;-89
2024/04/07 05:40:22;;;;;;;3.95;1.02;;;;;;;18.89;48.09;101226.44;4993195;28;96830;-89
2024/04/07 05:42:47;;;;;;;3.40;0.43;;;;;;;18.88;48.46;101227.38;4968902;28;96900;-89
2024/04/07 05:45:15;;;;;;;2.58;0.80;;;;;;;18.88;48.51;101230.88;4986432;28;100298;-90
2024/04/07 05:47:40;;;;;;;2.58;0.63;;;;;;;18.87;48.14;101242.31;4970081;28;100300;-89
2024/04/07 05:50:06;;;;;;;3.47;0.82;;;;;;;18.85;48.47;101248.53;4973162;28;97293;-89
2024/04/07 05:52:32;;;;;;;3.17;1.40;;;;;;;18.83;48.34;101253.84;4985613;28;96875;-90
2024/04/07 05:54:57;;;;;;;3.75;1.50;;;;;;;18.82;48.44;101249.44;4970032;28;100686;-90
2024/04/07 05:57:22;;;;;;;2.88;1.10;;;;;;;18.82;48.66;101253.00;4993695;28;100085;-89
2024/04/07 05:59:48;;;;;;;2.15;0.70;;;;;;;18.82;48.59;101257.38;4977852;28;97023;-89
2024/04/07 06:02:13;;;;;;;4.72;0.80;;;;;;;18.81;48.75;101259.16;4977263;28;96910;-88
2024/04/07 06:04:39;;;;;;;2.53;1.52;;;;;;;18.82;48.65;101257.38;4994588;28;100128;-88
2024/04/07 06:07:05;;;;;;;4.57;1.60;;;;;;;18.83;48.75;101269.72;4996068;28;100377;-89
2024/04/07 06:09:31;;;;;;;1.85;0.70;;;;;;;18.86;48.92;101271.41;4976280;28;96820;-90
2024/04/07 06:11:56;;;;;;;4.22;0.70;;;;;;;18.88;48.87;101267.00;4976123;28;97912;-89
2024/04/07 06:14:22;;;;;;;2.92;1.42;;;;;;;18.90;48.92;101265.22;4978302;28;100537;-89
2024/04/07 06:16:47;;;;;;;3.17;0.77;;;;;;;18.95;48.97;101273.94;4986422;28;100579;-89
2024/04/07 06:19:12;;;;;;;5.60;1.38;;;;;;;18.97;49.18;101270.38;4981587;28;96840;-89
2024/04/07 06:21:39;;;;;;;7.05;1.00;;;;;;;19.01;49.02;101279.13;4989056;28;96993;-89
2024/04/07 06:24:04;;;;;;;3.20;1.50;;;;;;;19.04;49.23;101276.44;4991856;28;98060;-90
2024/04/07 06:26:30;;;;;;;4.22;1.63;;;;;;;19.08;49.05;101277.25;4993770;28;99854;-89
2024/04/07 06:28:55;;;;;;;4.13;0.75;;;;;;;19.12;49.20;101282.47;4982685;28;96960;-90
2024/04/07 06:31:22;;;;;;;3.67;0.88;;;;;;;19.15;49.04;101284.19;4973491;28;96908;-89
2024/04/07 06:33:48;;;;;;;2.17;0.55;;;;;;;19.18;48.94;101289.44;4992316;28;100328;-89
2024/04/07 06:36:13;;;;;;;3.75;1.38;;;;;;;19.21;49.17;101290.28;4974878;28;100644;-89
2024/04/07 06:38:39;;;;;;;3.38;0.90;;;;;;;19.25;49.46;101283.16;4975123;28;97571;-89
2024/04/07 06:41:04;;;;;;;5.32;1.67;;;;;;;19.35;49.75;101283.88;4973849;28;96866;-89
2024/04/07 06:43:30;;;;;;;3.78;1.45;;;;;;;19.48;49.57;101288.03;5011019;28;100180;-89
2024/04/07 06:45:58;;;;;;;2.88;0.60;;;;;;;19.59;49.11;101280.81;4990963;28;100574;-89
2024/04/07 06:48:24;;;;;;;2.50;0.73;;;;;;;19.69;49.20;101283.28;4993247;28;96750;-90
2024/04/07 06:50:50;;;;;;;3.63;0.90;;;;;;;19.75;48.95;101283.19;4982936;28;96912;-89
2024/04/07 06:53:16;;;;;;;2.35;1.13;;;;;;;19.80;48.95;101283.97;5003701;28;100673;-90
2024/04/07 06:55:41;;;;;;;3.78;1.00;;;;;;;19.82;49.00;101290.13;4967223;28;100872;-89
2024/04/07 06:58:07;;;;;;;5.15;0.93;;;;;;;19.85;48.66;101291.84;4996559;28;96976;-89
2024/04/07 07:00:32;;;;;;;2.92;0.93;;;;;;;19.89;48.79;101307.66;4994135;28;96907;-90
2024/04/07 07:02:58;;;;;;;5.30;1.15;;;;;;;19.91;48.61;101302.28;4975983;28;100460;-89
2024/04/07 07:05:23;;;;;;;2.30;0.85;;;;;;;19.92;48.32;101306.69;4983857;28;100147;-90
2024/04/07 07:07:49;;;;;;;3.88;1.70;;;;;;;19.91;48.43;101300.53;4975252;28;96864;-89
2024/04/07 07:10:14;;;;;;;2.97;1.40;;;;;;;19.92;48.18;101310.22;4975735;28;96857;-91
2024/04/07 07:12:39;;;;;;;4.45;0.80;;;;;;;19.94;48.46;101316.34;4976162;28;100352;-90
2024/04/07 07:15:05;;;;;;;3.63;0.95;;;;;;;19.99;48.78;101318.91;4972201;28;99796;-90
2024/04/07 07:17:31;;;;;;;4.97;0.75;;;;;;;20.04;48.55;101319.72;4987091;28;96934;-86
2024/04/07 07:19:57;;;;;;;5.05;0.93;;;;;;;20.08;48.50;101315.22;4974299;28;97021;-86
2024/04/07 07:22:22;;;;;;;3.22;1.10;;;;;;;20.15;48.40;101322.16;4986812;28;100135;-87
2024/04/07 07:24:47;;;;;;;3.55;1.67;;;;;;;20.22;48.98;101312.31;4973085;28;99899;-87
2024/04/07 07:27:13;;;;;;;6.18;1.83;;;;;;;20.34;49.09;101320.88;4990764;28;96948;-86
2024/04/07 07:29:39;;;;;;;4.95;1.05;;;;;;;20.50;48.99;101316.13;4989134;28;96930;-86
2024/04/07 07:32:06;;;;;;;4.05;1.67;;;;;;;20.68;49.21;101321.97;4987324;28;100740;-87
2024/04/07 07:34:32;;;;;;;5.00;1.15;;;;;;;20.83;48.50;101315.44;4990026;28;100121;-86
2024/04/07 07:36:57;;;;;;;6.47;1.10;;;;;;;21.01;48.58;101327.41;4989989;28;96869;-87
2024/04/07 07:39:22;;;;;;;4.18;1.60;;;;;;;21.24;48.37;101322.44;4972632;28;96888;-87
2024/04/07 07:41:48;;;;;;;3.58;0.80;;;;;;;21.41;47.18;101331.78;4968335;28;100756;-88
2024/04/07 07:44:15;;;;;;;3.67;0.90;;;;;;;21.52;47.57;101328.88;4969917;28;99733;-90
2024/04/07 07:46:41;;;;;;;4.32;1.83;;;;;;;21.62;46.79;101333.03;4974221;28;96817;-87
2024/04/07 07:49:07;;;;;;;3.08;1.00;;;;;;;21.62;47.23;101331.28;4972769;28;96872;-88
2024/04/07 07:51:33;;;;;;;3.30;1.63;;;;;;;21.74;47.41;101340.69;4987916;28;97865;-87
2024/04/07 07:53:59;;;;;;;4.95;1.77;;;;;;;21.91;47.74;101334.94;4970513;28;100364;-89
2024/04/07 07:56:25;;;;;;;5.80;1.60;;;;;;;22.12;47.60;101344.09;4972945;28;96849;-89
2024/04/07 07:58:50;;;;;;;4.55;1.02;;;;;;;22.34;47.36;101340.88;4976249;28;96873;-88
2024/04/07 08:01:16;;;;;;;6.85;1.85;;;;;;;22.57;46.67;101350.84;4991706;28;98008;-88
2024/04/07 08:03:41;;;;;;;4.63;1.20;;;;;;;22.72;45.54;101355.69;4975210;28;100318;-88
2024/04/07 08:06:07;;;;;;;5.55;1.60;;;;;;;22.73;44.67;101361.91;4990242;28;96934;-88
2024/04/07 08:08:32;;;;;;;7.50;1.27;;;;;;;22.69;44.70;101349.59;4976720;28;96908;-88
2024/04/07 08:10:58;;;;;;;6.90;2.03;;;;;;;22.72;44.63;101366.31;4972613;28;100792;-89
2024/04/07 08:13:24;;;;;;;4.25;1.20;;;;;;;22.77;44.56;101364.41;4977275;28;100538;-89
2024/04/07 08:15:49;;;;;;;3.33;1.23;;;;;;;22.81;44.03;101357.19;4991497;28;96862;-89
2024/04/07 08:18:15;;;;;;;6.00;1.50;;;;;;;22.75;44.00;101357.41;4993093;28;96805;-90
2024/04/07 08:20:42;;;;;;;4.32;1.13;;;;;;;22.71;43.91;101371.69;4990115;28;100238;-89
2024/04/07 08:23:09;;;;;;;4.82;1.98;;;;;;;22.65;44.15;101370.06;4974135;28;100354;-87
2024/04/07 08:25:34;;;;;;;4.68;1.10;;;;;;;22.63;44.20;101367.47;4978526;28;96871;-88
2024/04/07 08:28:01;;;;;;;5.63;1.95;;;;;;;22.67;44.25;101378.00;5004230;28;96958;-88
2024/04/07 08:30:26;;;;;;;4.57;1.25;;;;;;;22.69;43.32;101374.41;4971026;28;99968;-89
2024/04/07 08:32:52;;;;;;;3.03;0.90;;;;;;;22.68;43.41;101363.81;4956441;28;100497;-90
2024/04/07 08:35:18;;;;;;;4.68;1.30;;;;;;;22.74;43.22;101376.91;4985244;28;96879;-88
2024/04/07 08:37:44;;;;;;;3.15;0.90;;;;;;;22.75;42.94;101374.22;4957888;28;97458;-90
2024/04/07 08:40:09;;;;;;;5.70;1.30;;;;;;;22.60;42.39;101378.22;4972531;28;99768;-90
2024/04/07 08:42:36;;;;;;;3.95;1.40;;;;;;;22.44;42.54;101374.22;4975168;28;100326;-91
2024/04/07 08:45:04;;;;;;;3.88;1.23;;;;;;;22.25;42.21;101379.19;4988573;28;96826;-89
2024/04/07 08:47:30;;;;;;;5.50;1.80;;;;;;;22.08;42.39;101384.94;4982719;28;96860;-91
2024/04/07 08:49:57;;;;;;;3.65;1.65;;;;;;;21.96;42.27;101380.84;4983746;28;100753;-91
2024/04/07 08:52:23;;;;;;;5.30;1.65;;;;;;;21.90;42.55;101382.78;5001474;28;100350;-91
2024/04/07 08:54:49;;;;;;;7.40;1.13;;;;;;;21.92;42.95;101381.81;4974644;28;96884;-90
2024/04/07 08:57:16;;;;;;;7.40;1.92;;;;;;;22.05;43.03;101390.34;4958887;28;96854;-91
2024/04/07 08:59:47;;;;;;;5.47;1.75;;;;;;;22.19;42.65;101389.94;4992271;28;100754;-92
2024/04/07 09:02:15;;;;;;;5.57;1.55;;;;;;;22.27;42.24;101401.28;4974115;28;100553;-92
2024/04/07 09:04:41;;;;;;;4.72;1.40;;;;;;;22.37;42.39;101404.53;4989122;28;96764;-93
2024/04/07 09:07:07;;;;;;;4.50;1.67;;;;;;;22.48;42.41;101410.47;4981689;28;96765;-90
2024/04/07 09:09:33;;;;;;;4.22;1.80;;;;;;;22.68;42.68;101407.22;4972701;28;100430;-91
2024/04/07 09:11:59;;;;;;;5.28;1.20;;;;;;;22.97;42.63;101395.69;4992393;28;100020;-91
2024/04/07 09:14:26;;;;;;;4.45;1.50;;;;;;;23.35;42.82;101396.34;4972077;28;96839;-90
2024/04/07 09:17:05;;;;;;;6.10;1.02;;;;;;;23.81;41.86;101395.78;4987290;28;96963;-91
2024/04/07 09:19:36;;;;;;;6.28;1.50;;;;;;;23.91;41.35;101390.06;4969810;28;100665;-91
2024/04/07 09:22:03;;;;;;;4.10;1.10;;;;;;;23.88;40.46;101406.16;4970210;28;100584;-93
2024/04/07 09:24:30;;;;;;;5.47;1.92;;;;;;;23.83;40.54;101393.91;4984322;28;96849;-89
2024/04/07 09:27:05;;;;;;;4.45;0.98;;;;;;;23.91;41.03;101394.53;4968924;28;97314;-90
2024/04/07 09:29:31;;;;;;;5.78;1.13;;;;;;;24.20;41.63;101390.84;4971725;28;100160;-88
2024/04/07 09:31:59;;;;;;;6.28;1.90;;;;;;;24.52;41.02;101399.47;4988629;28;97701;-90
2024/04/07 09:34:25;;;;;;;6.05;0.90;;;;;;;24.74;40.20;101388.03;4972671;28;96878;-87
2024/04/07 09:36:52;;;;;;;4.72;1.98;;;;;;;24.80;39.69;101402.00;4971196;28;96910;-91
2024/04/07 09:39:20;;;;;;;5.88;1.75;;;;;;;24.76;38.93;101404.84;4975951;28;97579;-91
2024/04/07 09:41:47;;;;;;;4.20;1.00;;;;;;;24.60;38.37;101396.53;4990161;28;96800;-90
2024/04/07 09:44:19;;;;;;;4.80;0.90;;;;;;;24.51;38.55;101408.41;4988722;28;96829;-89
2024/04/07 09:46:48;;;;;;;5.95;1.40;;;;;;;24.40;38.35;101408.78;4971454;28;96945;-87
2024/04/07 09:49:14;;;;;;;7.10;1.58;;;;;;;24.24;37.80;101413.81;4973251;28;100509;-89
2024/04/07 09:51:43;;;;;;;3.50;0.98;;;;;;;24.09;37.88;101404.53;4968619;28;99119;-90
2024/04/07 09:54:18;;;;;;;4.07;0.80;;;;;;;23.93;37.49;101408.69;4974448;28;96868;-90
2024/04/07 09:56:45;;;;;;;6.35;1.13;;;;;;;23.88;37.75;101406.16;4972698;28;97281;-85
2024/04/07 09:59:12;;;;;;;4.25;1.10;;;;;;;23.81;37.37;101407.28;4972904;28;100353;-84
2024/04/07 10:01:38;;;;;;;3.78;1.30;;;;;;;23.65;37.27;101406.91;4971607;28;99891;-85
2024/04/07 10:04:04;;;;;;;5.72;1.70;;;;;;;23.51;37.42;101402.06;4971158;28;96967;-90
2024/04/07 10:06:31;;;;;;;4.70;1.48;;;;;;;23.53;37.92;101405.53;4968195;28;96912;-86
2024/04/07 10:08:58;;;;;;;4.15;1.70;;;;;;;23.68;38.56;101413.94;4985298;28;100928;-92
2024/04/07 10:11:24;;;;;;;3.70;1.60;;;;;;;23.87;38.15;101409.75;4975227;28;99148;-89
2024/04/07 10:13:49;;;;;;;4.70;0.90;;;;;;;24.00;37.88;101401.34;4980642;28;96609;-88
2024/04/07 10:16:15;;;;;;;4.43;0.90;;;;;;;24.03;37.40;101411.88;4973315;28;96749;-91
2024/04/07 10:18:42;;;;;;;3.60;0.80;;;;;;;23.97;36.77;101402.31;4976141;28;100748;-92
2024/04/07 10:21:09;;;;;;;5.55;1.27;;;;;;;23.85;36.67;101408.06;4989681;28;99088;-91
2024/04/07 10:23:36;;;;;;;4.75;0.98;;;;;;;23.72;36.82;101404.91;4980138;28;96737;-94
2024/04/07 10:26:03;;;;;;;2.53;0.70;;;;;;;23.56;36.77;101399.22;4981469;28;96802;-91
2024/04/07 10:28:50;;;;;;;4.05;1.33;;;;;;;23.48;37.07;101403.94;4990003;28;98126;-92
2024/04/07 10:31:32;;;;;;;5.65;1.02;;;;;;;23.57;37.44;101395.66;4970226;28;100300;-93
2024/04/07 10:33:58;;;;;;;4.43;1.35;;;;;;;23.83;37.16;101394.81;4983082;28;96978;-93
2024/04/07 10:36:25;;;;;;;3.80;1.08;;;;;;;24.07;37.29;101395.75;4977510;28;96883;-92
2024/04/07 10:38:58;;;;;;;3.78;1.40;;;;;;;24.36;36.14;101392.97;5000752;28;100393;-93
2024/04/07 10:41:31;;;;;;;5.43;0.80;;;;;;;24.54;35.69;101389.66;4992958;28;99595;-92
2024/04/07 10:43:58;;;;;;;4.25;0.95;;;;;;;24.74;35.96;101391.56;4976041;28;96870;-92
2024/04/07 10:46:28;;;;;;;3.25;1.63;;;;;;;24.84;34.89;101387.59;4996392;28;96939;-95
2024/04/07 10:48:57;;;;;;;3.53;1.42;;;;;;;24.77;34.72;101396.78;4978722;28;100199;-90
2024/04/07 10:51:23;;;;;;;2.92;0.73;;;;;;;24.77;35.03;101386.09;4981612;28;100327;-93
2024/04/07 10:54:03;;;;;;;3.75;0.80;;;;;;;24.77;34.97;101398.59;5000139;28;96757;-95
2024/04/07 10:56:30;;;;;;;3.08;1.33;;;;;;;24.86;34.63;101401.75;4985761;28;96841;-95
2024/04/07 10:58:56;;;;;;;2.88;1.20;;;;;;;24.92;34.54;101392.66;4976296;28;99516;-87
2024/04/07 11:01:22;;;;;;;4.38;1.25;;;;;;;25.05;34.80;101407.25;4972556;28;100652;-90
2024/04/07 11:03:48;;;;;;;2.58;0.82;;;;;;;25.16;34.21;101395.28;5023355;28;96752;-91
2024/04/07 11:06:14;;;;;;;3.70;0.80;;;;;;;25.21;33.71;101388.84;4988931;28;96988;-94
2024/04/07 11:08:41;;;;;;;3.03;1.33;;;;;;;25.23;33.72;101399.47;4987232;28;100814;-89
2024/04/07 11:11:09;;;;;;;3.10;1.30;;;;;;;25.26;33.34;101389.56;4984004;28;98972;-92
2024/04/07 11:13:34;;;;;;;2.33;1.30;;;;;;;25.38;33.89;101389.97;4967038;28;96749;-94
2024/04/07 11:16:00;;;;;;;3.20;0.55;;;;;;;25.54;33.18;101393.75;4985661;28;96958;-90
2024/04/07 11:18:25;;;;;;;6.68;1.30;;;;;;;25.59;33.08;101401.59;4985015;28;100441;-92
2024/04/07 11:20:53;;;;;;;2.92;1.45;;;;;;;25.64;33.06;101386.25;4976584;28;100147;-91
2024/04/07 11:23:19;;;;;;;3.40;0.70;;;;;;;25.70;33.38;101393.13;4994381;28;96808;-91